createdAt,value
2023-03-23T15:59:06.350Z,1.73
2023-03-23T16:01:32.762Z,2.20
2023-03-23T16:04:04.324Z,2.30
2023-03-23T16:06:33.190Z,2.47
2023-03-23T16:09:00.331Z,1.83
2023-03-23T16:11:28.679Z,2.00
2023-03-23T16:13:55.633Z,2.20
2023-03-23T16:16:27.052Z,1.97
2023-03-23T16:18:53.974Z,2.50
2023-03-23T16:21:20.385Z,2.33
2023-03-23T16:23:46.736Z,1.97
2023-03-23T16:26:15.052Z,2.60
2023-03-23T16:28:43.001Z,2.60
2023-03-23T16:31:10.400Z,2.70
2023-03-23T16:33:36.813Z,2.10
2023-03-23T16:36:03.730Z,3.27
2023-03-23T16:38:30.230Z,2.70
2023-03-23T16:40:56.665Z,2.10
2023-03-23T16:43:23.036Z,2.40
2023-03-23T16:45:49.881Z,3.57
2023-03-23T16:48:17.057Z,3.90
2023-03-23T16:50:44.443Z,2.63
2023-03-23T16:53:11.019Z,1.93
2023-03-23T16:55:38.530Z,4.57
2023-03-23T16:58:16.455Z,3.00
2023-03-23T17:00:47.611Z,2.83
2023-03-23T17:03:16.087Z,2.40
2023-03-23T17:05:43.024Z,1.90
2023-03-23T17:08:09.559Z,2.70
2023-03-23T17:10:38.506Z,2.47
2023-03-23T17:13:04.874Z,2.23
2023-03-23T17:15:31.240Z,3.00
2023-03-23T17:17:57.616Z,2.07
2023-03-23T17:20:24.325Z,2.40
2023-03-23T17:22:50.911Z,2.93
2023-03-23T17:25:17.302Z,2.60
2023-03-23T17:27:43.731Z,2.50
2023-03-23T17:30:11.548Z,2.67
2023-03-23T17:32:38.338Z,2.90
2023-03-23T17:35:06.427Z,3.43
2023-03-23T17:37:33.349Z,3.07
2023-03-23T17:40:00.095Z,2.90
2023-03-23T17:42:26.987Z,3.53
2023-03-23T17:44:53.359Z,4.50
2023-03-23T17:47:19.805Z,5.47
2023-03-23T17:49:46.418Z,3.53
2023-03-23T17:52:12.743Z,3.03
2023-03-23T17:54:39.077Z,2.97
2023-03-23T17:57:05.823Z,5.40
2023-03-23T17:59:32.232Z,6.17
2023-03-23T18:01:58.752Z,5.13
2023-03-23T18:04:26.903Z,4.33
2023-03-23T18:06:57.792Z,5.00
2023-03-23T18:09:25.337Z,4.80
2023-03-23T18:11:52.870Z,5.13
2023-03-23T18:14:20.127Z,4.10
2023-03-23T18:16:46.734Z,4.60
2023-03-23T18:19:13.175Z,4.67
2023-03-23T18:21:39.590Z,4.17
2023-03-23T18:24:06.302Z,4.40
2023-03-23T18:26:32.718Z,4.53
2023-03-23T18:28:59.305Z,4.20
2023-03-23T18:31:25.772Z,4.80
2023-03-23T18:33:54.808Z,5.83
2023-03-23T18:36:24.928Z,5.70
2023-03-23T18:38:55.286Z,5.83
2023-03-23T18:41:21.610Z,5.07
2023-03-23T18:43:48.147Z,7.00
2023-03-23T18:46:14.531Z,4.30
2023-03-23T18:48:41.110Z,5.03
2023-03-23T18:51:08.881Z,4.30
2023-03-23T18:53:35.621Z,4.43
2023-03-23T18:56:11.481Z,3.77
2023-03-23T18:58:38.899Z,3.77
2023-03-23T19:01:07.962Z,4.27
2023-03-23T19:03:36.079Z,4.20
2023-03-23T19:06:04.367Z,4.00
2023-03-23T19:08:31.752Z,3.97
2023-03-23T19:11:01.044Z,3.77
2023-03-23T19:13:29.368Z,3.37
2023-03-23T19:15:56.070Z,4.00
2023-03-23T19:18:22.988Z,3.87
2023-03-23T19:21:12.493Z,3.23
2023-03-23T19:23:37.279Z,3.30
2023-03-23T19:26:04.023Z,3.10
2023-03-23T19:29:18.761Z,3.40
2023-03-23T19:31:19.689Z,3.27
2023-03-23T19:33:48.956Z,2.83
2023-03-23T19:36:16.705Z,3.20
2023-03-23T19:38:43.302Z,3.67
2023-03-23T19:41:10.014Z,3.50
2023-03-23T19:43:37.705Z,3.33
2023-03-23T19:46:04.491Z,2.87
2023-03-23T19:48:31.036Z,3.90
2023-03-23T19:50:57.540Z,2.90
2023-03-23T19:53:24.297Z,3.63
2023-03-23T19:55:51.510Z,4.33
2023-03-23T19:58:18.513Z,4.53
2023-03-23T20:00:45.835Z,3.30
2023-03-23T20:03:12.989Z,4.07
2023-03-23T20:05:40.721Z,3.50
2023-03-23T20:08:09.706Z,2.50
2023-03-23T20:10:36.584Z,4.63
2023-03-23T20:13:04.367Z,3.83
2023-03-23T20:15:31.509Z,4.30
2023-03-23T20:17:58.408Z,3.10
2023-03-23T20:20:25.152Z,3.77
2023-03-23T20:22:54.397Z,2.60
2023-03-23T20:25:22.699Z,2.93
2023-03-23T20:27:49.188Z,2.67
2023-03-23T20:30:16.962Z,3.10
2023-03-23T20:32:46.140Z,3.70
2023-03-23T20:35:12.976Z,3.47
2023-03-23T20:37:39.845Z,2.80
2023-03-23T20:40:10.963Z,3.27
2023-03-23T20:42:38.264Z,3.30
2023-03-23T20:45:06.434Z,2.93
2023-03-23T20:47:32.845Z,2.90
2023-03-23T20:49:59.202Z,2.90
2023-03-23T20:52:25.950Z,2.70
2023-03-23T20:54:53.326Z,2.97
2023-03-23T20:57:20.637Z,2.83
2023-03-23T20:59:47.018Z,2.83
2023-03-23T21:02:15.529Z,3.40
2023-03-23T21:04:42.396Z,2.77
2023-03-23T21:07:10.056Z,2.33
2023-03-23T21:09:36.425Z,1.70
2023-03-23T21:12:06.249Z,2.40
2023-03-23T21:14:33.756Z,2.60
2023-03-23T21:17:01.495Z,2.70
2023-03-23T21:19:29.809Z,2.43
2023-03-23T21:21:57.280Z,2.30
2023-03-23T21:24:26.416Z,2.67
2023-03-23T21:26:54.623Z,2.70
2023-03-23T21:29:23.884Z,3.10
2023-03-23T21:32:01.093Z,1.90
2023-03-23T21:34:34.269Z,3.17
2023-03-23T21:37:00.638Z,2.10
2023-03-23T21:39:28.003Z,2.50
2023-03-23T21:41:54.446Z,2.60
2023-03-23T21:44:20.825Z,2.30
2023-03-23T21:46:47.169Z,2.30
2023-03-23T21:49:14.226Z,2.20
2023-03-23T21:51:41.560Z,2.77
2023-03-23T21:54:09.921Z,2.77
2023-03-23T21:56:37.491Z,2.80
2023-03-23T21:59:04.594Z,3.20
2023-03-23T22:01:31.115Z,4.73
2023-03-23T22:03:57.999Z,2.83
2023-03-23T22:06:30.875Z,4.20
2023-03-23T22:08:57.308Z,3.40
2023-03-23T22:11:26.848Z,4.03
2023-03-23T22:13:54.761Z,3.30
2023-03-23T22:16:21.869Z,3.10
2023-03-23T22:18:49.448Z,4.57
2023-03-23T22:21:17.035Z,2.17
2023-03-23T22:23:44.959Z,3.17
2023-03-23T22:26:12.530Z,4.20
2023-03-23T22:28:40.061Z,3.30
2023-03-23T22:31:16.930Z,4.00
2023-03-23T22:33:43.698Z,3.30
2023-03-23T22:36:11.098Z,2.90
2023-03-23T22:38:41.253Z,3.97
2023-03-23T22:41:09.057Z,4.10
2023-03-23T22:43:37.028Z,5.07
2023-03-23T22:46:04.792Z,5.20
2023-03-23T22:48:31.642Z,2.93
2023-03-23T22:50:58.448Z,3.90
2023-03-23T22:53:25.302Z,3.80
2023-03-23T22:55:54.505Z,3.00
2023-03-23T22:58:21.270Z,3.43
2023-03-23T23:00:51.436Z,3.03
2023-03-23T23:03:18.002Z,3.50
2023-03-23T23:05:48.491Z,3.20
2023-03-23T23:08:17.727Z,3.57
2023-03-23T23:10:46.594Z,3.60
2023-03-23T23:13:13.486Z,3.73
2023-03-23T23:15:43.315Z,3.33
2023-03-23T23:18:10.173Z,3.33
2023-03-23T23:20:36.953Z,3.20
2023-03-23T23:23:04.235Z,2.97
2023-03-23T23:25:31.579Z,3.37
2023-03-23T23:27:59.500Z,3.20
2023-03-23T23:30:27.376Z,3.33
2023-03-23T23:32:53.954Z,2.97
2023-03-23T23:35:21.187Z,3.27
2023-03-23T23:37:48.160Z,3.13
2023-03-23T23:40:15.944Z,2.90
2023-03-23T23:42:44.053Z,3.17
2023-03-23T23:45:10.949Z,2.87
2023-03-23T23:47:38.454Z,3.03
2023-03-23T23:50:07.254Z,3.50
2023-03-23T23:52:34.828Z,3.80
2023-03-23T23:55:01.305Z,3.67
2023-03-23T23:57:27.703Z,3.17
2023-03-23T23:59:54.183Z,3.07
